Time;durP1;ratioP1;P1;durP2;ratioP2;P2;SDS_P1;SDS_P2;PMS_P1;PMS_P2;Temp;Humidity;BMP_temperature;BMP_pressure;BME280_temperature;BME280_humidity;BME280_pressure;Samples;Min_cycle;Max_cycle;Signal;HPM_P1;HPM_P2
2023/02/25 00:01:08;;;;;;;18.50;3.70;;;;;;;3.08;100.00;99196.02;108804;1257;71352;-75
2023/02/25 00:03:35;;;;;;;21.30;3.30;;;;;;;3.11;100.00;99207.53;108692;1256;74168;-75
2023/02/25 00:06:03;;;;;;;14.30;2.90;;;;;;;3.14;100.00;99216.48;108632;1256;61627;-75
2023/02/25 00:08:30;;;;;;;18.20;3.50;;;;;;;3.15;100.00;99201.38;108705;1256;60178;-76
2023/02/25 00:11:04;;;;;;;18.00;3.70;;;;;;;3.17;100.00;99200.70;108856;1260;74820;-76
2023/02/25 00:13:32;;;;;;;16.80;3.90;;;;;;;3.18;100.00;99212.36;108744;1259;69746;-76
2023/02/25 00:16:03;;;;;;;15.30;3.00;;;;;;;3.21;100.00;99205.48;108720;1256;71598;-76
2023/02/25 00:18:32;;;;;;;18.10;3.40;;;;;;;3.22;100.00;99214.71;108622;1262;59665;-76
2023/02/25 00:21:02;;;;;;;17.10;4.10;;;;;;;3.24;100.00;99217.20;108667;1256;59130;-76
2023/02/25 00:23:29;;;;;;;14.80;3.10;;;;;;;3.27;100.00;99220.75;108855;1256;73140;-77
2023/02/25 00:26:00;;;;;;;16.70;2.90;;;;;;;3.30;100.00;99214.81;108701;1256;69456;-76
2023/02/25 00:28:27;;;;;;;13.90;3.20;;;;;;;3.31;100.00;99211.21;108641;1256;71970;-76
2023/02/25 00:30:54;;;;;;;21.20;4.00;;;;;;;3.33;100.00;99224.45;108829;1256;59697;-77
2023/02/25 00:33:21;;;;;;;14.10;3.30;;;;;;;3.37;100.00;99214.60;108869;1256;59046;-76
2023/02/25 00:35:49;;;;;;;18.50;4.10;;;;;;;3.37;100.00;99226.80;108706;1256;74339;-78
2023/02/25 00:38:16;;;;;;;13.10;3.10;;;;;;;3.41;100.00;99227.92;108721;1260;69974;-76
2023/02/25 00:40:43;;;;;;;18.50;3.00;;;;;;;3.42;100.00;99235.35;108834;1258;71178;-76
2023/02/25 00:43:10;;;;;;;14.50;3.60;;;;;;;3.41;100.00;99236.50;108517;1256;59664;-76
2023/02/25 00:45:39;;;;;;;11.50;2.40;;;;;;;3.37;99.99;99238.98;108834;1256;59090;-76
2023/02/25 00:48:06;;;;;;;17.50;3.70;;;;;;;3.37;100.00;99236.98;108734;1256;75122;-77
2023/02/25 00:50:34;;;;;;;12.10;3.60;;;;;;;3.35;99.98;99254.77;108657;1260;69730;-77
2023/02/25 00:53:00;;;;;;;12.70;3.30;;;;;;;3.34;100.00;99251.05;108846;1257;74655;-77
2023/02/25 00:55:32;;;;;;;13.20;3.50;;;;;;;3.33;100.00;99255.54;108825;1256;59394;-76
2023/02/25 00:58:00;;;;;;;18.90;3.50;;;;;;;3.32;100.00;99252.16;108865;1256;60001;-77
2023/02/25 01:00:27;;;;;;;9.60;2.60;;;;;;;3.28;100.00;99264.65;108626;1256;74663;-78
2023/02/25 01:02:56;;;;;;;13.10;3.10;;;;;;;3.22;100.00;99271.18;108784;1256;70516;-77
2023/02/25 01:05:23;;;;;;;17.40;3.60;;;;;;;3.17;100.00;99271.74;108860;1256;73223;-77
2023/02/25 01:07:50;;;;;;;13.10;3.20;;;;;;;3.13;100.00;99274.84;108853;1257;59427;-77
2023/02/25 01:10:18;;;;;;;10.30;3.20;;;;;;;3.13;100.00;99290.30;108654;1256;58946;-77
2023/02/25 01:12:45;;;;;;;12.10;2.90;;;;;;;3.11;100.00;99283.00;108750;1256;73112;-77
2023/02/25 01:15:12;;;;;;;16.50;2.90;;;;;;;3.07;100.00;99281.20;108683;1256;69721;-77
2023/02/25 01:17:39;;;;;;;17.10;3.20;;;;;;;3.02;100.00;99287.44;108665;1256;71628;-76
2023/02/25 01:20:11;;;;;;;15.90;2.90;;;;;;;2.99;100.00;99289.66;108670;1256;60930;-77
2023/02/25 01:22:40;;;;;;;13.50;2.90;;;;;;;2.96;100.00;99287.72;108818;1256;59116;-76
2023/02/25 01:25:11;;;;;;;14.50;2.50;;;;;;;2.93;100.00;99288.54;108813;1258;74399;-76
2023/02/25 01:27:38;;;;;;;9.10;2.00;;;;;;;2.95;100.00;99286.92;108848;1256;71224;-76
2023/02/25 01:30:06;;;;;;;12.60;2.60;;;;;;;2.94;100.00;99285.73;108657;1256;72806;-76
2023/02/25 01:32:33;;;;;;;9.50;2.30;;;;;;;2.95;100.00;99289.64;108854;1256;59977;-77
2023/02/25 01:35:01;;;;;;;11.60;2.20;;;;;;;2.96;100.00;99293.35;108835;1256;59861;-77
2023/02/25 01:37:28;;;;;;;12.10;2.40;;;;;;;2.97;100.00;99292.66;108682;1256;74403;-76
2023/02/25 01:39:54;;;;;;;12.60;2.50;;;;;;;2.99;100.00;99292.29;108827;1256;71216;-76
2023/02/25 01:42:22;;;;;;;15.40;3.00;;;;;;;2.98;100.00;99297.13;108827;1257;71443;-77
2023/02/25 01:45:17;;;;;;;14.60;3.10;;;;;;;3.00;100.00;99293.98;108677;1256;59384;-77
2023/02/25 01:47:49;;;;;;;8.60;2.40;;;;;;;2.99;100.00;99297.25;108834;1256;59061;-77
2023/02/25 01:50:22;;;;;;;15.90;2.60;;;;;;;2.99;100.00;99291.13;108827;1257;73520;-77
2023/02/25 01:52:50;;;;;;;11.40;3.10;;;;;;;2.99;100.00;99293.66;108825;1260;70171;-77
2023/02/25 01:55:17;;;;;;;12.30;2.80;;;;;;;3.00;100.00;99302.56;108807;1257;72472;-76
2023/02/25 01:57:44;;;;;;;10.50;2.70;;;;;;;2.97;100.00;99307.92;108778;1256;59763;-76
2023/02/25 02:00:15;;;;;;;14.30;3.20;;;;;;;2.97;100.00;99297.59;108725;1262;59687;-77
2023/02/25 02:02:48;;;;;;;15.20;3.20;;;;;;;2.98;100.00;99299.29;108606;1256;76330;-77
2023/02/25 02:05:15;;;;;;;14.20;3.30;;;;;;;3.01;100.00;99304.21;108779;1256;71217;-77
2023/02/25 02:07:42;;;;;;;14.20;2.70;;;;;;;3.02;100.00;99306.50;108646;1256;72770;-76
2023/02/25 02:10:10;;;;;;;12.10;3.00;;;;;;;3.02;100.00;99317.31;108532;1256;59885;-77
2023/02/25 02:12:40;;;;;;;16.00;3.40;;;;;;;3.05;100.00;99315.61;108779;1256;60841;-76
2023/02/25 02:15:11;;;;;;;15.90;3.00;;;;;;;3.04;100.00;99319.86;108742;1257;74765;-76
2023/02/25 02:17:43;;;;;;;13.80;3.80;;;;;;;3.07;99.91;99315.97;108747;1256;73014;-77
2023/02/25 02:20:19;;;;;;;14.00;3.30;;;;;;;3.09;99.96;99313.45;108602;1256;73194;-76
2023/02/25 02:22:49;;;;;;;13.60;3.00;;;;;;;3.11;99.79;99316.79;108753;1257;59951;-76
2023/02/25 02:25:28;;;;;;;12.20;2.80;;;;;;;3.10;99.42;99320.36;108785;1256;60312;-76
2023/02/25 02:27:58;;;;;;;11.80;2.80;;;;;;;3.09;99.26;99329.17;108793;1256;74157;-77
2023/02/25 02:30:49;;;;;;;10.80;2.90;;;;;;;3.06;98.98;99322.65;108792;1256;71080;-77
2023/02/25 02:33:30;;;;;;;13.90;2.70;;;;;;;3.07;99.44;99317.71;108799;1257;71666;-77
2023/02/25 02:36:10;;;;;;;12.40;2.90;;;;;;;3.05;98.85;99317.35;108808;1256;59686;-77
2023/02/25 02:38:47;;;;;;;11.50;2.70;;;;;;;3.03;98.60;99330.51;108646;1257;59331;-76
2023/02/25 02:41:32;;;;;;;11.10;2.30;;;;;;;3.04;97.75;99333.19;108817;1256;74415;-76
2023/02/25 02:44:06;;;;;;;11.50;2.90;;;;;;;3.05;97.65;99331.83;108899;1256;70881;-76
2023/02/25 02:46:50;;;;;;;12.40;2.90;;;;;;;3.06;97.44;99331.77;108850;1256;72012;-76
2023/02/25 02:49:29;;;;;;;13.00;2.70;;;;;;;3.05;96.99;99324.69;108836;1257;60387;-76
2023/02/25 02:52:00;;;;;;;9.20;2.70;;;;;;;3.03;96.40;99328.56;108847;1257;59416;-77
2023/02/25 02:54:33;;;;;;;9.90;2.50;;;;;;;3.01;95.87;99335.70;108676;1259;75095;-77
2023/02/25 02:57:01;;;;;;;8.30;2.10;;;;;;;3.03;95.80;99336.83;108693;1257;71317;-76
2023/02/25 02:59:36;;;;;;;8.60;2.10;;;;;;;3.03;95.95;99341.70;108697;1256;72427;-76
2023/02/25 03:02:08;;;;;;;10.30;2.20;;;;;;;3.00;95.50;99346.90;108699;1257;60128;-76
2023/02/25 03:04:38;;;;;;;8.40;2.00;;;;;;;2.98;95.23;99342.89;108725;1257;60120;-77
2023/02/25 03:07:07;;;;;;;11.00;2.40;;;;;;;2.98;95.63;99341.79;108844;1256;74434;-76
2023/02/25 03:09:47;;;;;;;8.90;2.10;;;;;;;2.98;95.92;99347.95;108725;1256;70025;-77
2023/02/25 03:12:14;;;;;;;7.50;1.80;;;;;;;2.96;95.20;99355.52;108821;1256;70760;-77
2023/02/25 03:14:40;;;;;;;11.90;2.00;;;;;;;2.93;94.53;99354.79;108805;1257;60071;-76
2023/02/25 03:17:15;;;;;;;8.50;1.80;;;;;;;2.93;94.43;99360.14;108866;1260;61210;-76
2023/02/25 03:19:45;;;;;;;5.50;1.30;;;;;;;2.91;93.94;99357.09;108823;1256;73476;-76
2023/02/25 03:22:39;;;;;;;10.50;2.00;;;;;;;2.87;93.05;99370.73;108827;1256;71283;-77
2023/02/25 03:25:16;;;;;;;7.10;1.50;;;;;;;2.88;92.64;99365.59;108793;1256;70236;-76
2023/02/25 03:27:46;;;;;;;6.70;1.80;;;;;;;2.89;92.64;99365.98;108801;1256;59956;-76
2023/02/25 03:30:31;;;;;;;6.80;1.50;;;;;;;2.91;92.20;99370.71;108637;1256;61422;-77
2023/02/25 03:33:05;;;;;;;9.10;1.90;;;;;;;2.92;92.32;99378.14;108814;1256;74710;-76
2023/02/25 03:35:34;;;;;;;6.40;1.80;;;;;;;2.94;92.37;99380.12;108834;1256;70674;-76
2023/02/25 03:38:06;;;;;;;8.20;1.80;;;;;;;2.95;92.74;99377.96;108850;1256;71520;-76
2023/02/25 03:40:36;;;;;;;6.90;1.50;;;;;;;2.98;92.74;99384.32;108758;1256;60157;-76
2023/02/25 03:43:09;;;;;;;7.10;1.50;;;;;;;2.96;93.21;99395.85;108876;1257;60503;-76
2023/02/25 03:45:39;;;;;;;7.10;1.60;;;;;;;2.97;93.46;99389.95;108860;1259;72180;-77
2023/02/25 03:48:09;;;;;;;6.70;1.90;;;;;;;2.95;92.84;99398.89;108754;1257;70118;-76
2023/02/25 03:50:52;;;;;;;6.50;1.80;;;;;;;2.96;92.51;99398.13;108753;1260;73386;-76
2023/02/25 03:53:19;;;;;;;6.30;1.50;;;;;;;2.97;92.66;99409.51;108690;1257;59857;-77
2023/02/25 03:55:46;;;;;;;5.20;1.40;;;;;;;2.96;90.64;99415.25;108769;1256;58985;-77
2023/02/25 03:58:13;;;;;;;5.80;1.50;;;;;;;2.97;90.16;99417.77;108891;1256;74504;-77
2023/02/25 04:00:42;;;;;;;9.20;1.90;;;;;;;2.98;90.84;99415.86;108910;1260;70265;-76
2023/02/25 04:03:11;;;;;;;6.10;1.50;;;;;;;2.97;90.41;99415.42;108821;1258;70487;-76
2023/02/25 04:05:38;;;;;;;6.60;1.40;;;;;;;2.92;88.55;99427.72;108705;1262;60927;-76
2023/02/25 04:08:14;;;;;;;5.20;1.10;;;;;;;2.90;88.22;99429.11;108686;1263;58911;-76
2023/02/25 04:10:42;;;;;;;9.00;1.50;;;;;;;2.87;88.16;99425.20;108767;1256;73685;-76
2023/02/25 04:13:10;;;;;;;4.90;1.20;;;;;;;2.85;87.53;99436.06;108946;1257;70138;-77
2023/02/25 04:15:37;;;;;;;5.70;1.30;;;;;;;2.81;86.52;99441.14;108753;1257;73283;-76
2023/02/25 04:18:05;;;;;;;6.70;1.20;;;;;;;2.83;86.70;99441.67;108691;1262;59456;-76
2023/02/25 04:20:32;;;;;;;5.30;1.40;;;;;;;2.82;86.21;99438.95;108698;1259;59265;-76
2023/02/25 04:23:00;;;;;;;4.30;1.00;;;;;;;2.84;86.68;99445.25;108719;1256;72780;-76
2023/02/25 04:25:27;;;;;;;5.20;1.10;;;;;;;2.83;87.01;99455.98;108745;1257;71450;-77
2023/02/25 04:27:54;;;;;;;5.80;1.20;;;;;;;2.83;87.18;99452.14;108825;1257;71368;-76
2023/02/25 04:30:21;;;;;;;5.30;1.20;;;;;;;2.83;87.19;99454.38;108725;1262;60110;-76
2023/02/25 04:32:48;;;;;;;6.10;1.20;;;;;;;2.83;86.82;99455.95;108924;1256;59021;-76
2023/02/25 04:35:15;;;;;;;5.30;1.10;;;;;;;2.82;86.09;99458.21;108897;1257;73523;-77
2023/02/25 04:37:42;;;;;;;5.70;1.40;;;;;;;2.83;85.74;99464.20;108750;1260;71167;-76
2023/02/25 04:40:13;;;;;;;5.90;1.20;;;;;;;2.84;86.13;99461.86;108712;1257;72766;-76
2023/02/25 04:42:41;;;;;;;6.60;1.90;;;;;;;2.84;86.90;99461.08;108808;1261;61237;-76
2023/02/25 04:45:10;;;;;;;5.40;1.60;;;;;;;2.87;87.43;99469.73;108905;1260;60802;-76
2023/02/25 04:47:37;;;;;;;6.60;1.70;;;;;;;2.90;87.83;99466.17;108913;1256;73430;-76
2023/02/25 04:50:05;;;;;;;7.50;1.30;;;;;;;2.89;88.51;99466.73;108745;1257;70903;-76
2023/02/25 04:52:32;;;;;;;8.10;1.40;;;;;;;2.90;88.59;99465.98;108674;1262;72347;-76
2023/02/25 04:54:59;;;;;;;7.10;1.20;;;;;;;2.88;87.45;99475.79;108908;1257;61298;-77
2023/02/25 04:57:26;;;;;;;6.40;1.00;;;;;;;2.83;84.68;99475.73;108793;1256;59477;-76
2023/02/25 04:59:54;;;;;;;4.20;1.00;;;;;;;2.81;83.78;99480.13;108885;1257;73670;-77
2023/02/25 05:02:21;;;;;;;2.70;0.80;;;;;;;2.77;83.36;99471.21;108864;1257;70044;-76
2023/02/25 05:04:48;;;;;;;2.70;0.80;;;;;;;2.74;83.09;99478.20;108913;1259;71620;-76
2023/02/25 05:07:15;;;;;;;5.20;1.10;;;;;;;2.75;83.49;99469.50;108866;1258;59638;-76
2023/02/25 05:09:42;;;;;;;4.00;0.90;;;;;;;2.75;84.14;99467.99;108896;1257;59257;-76
2023/02/25 05:12:09;;;;;;;5.20;1.00;;;;;;;2.75;84.19;99467.84;108929;1260;74654;-76
2023/02/25 05:14:36;;;;;;;5.10;1.10;;;;;;;2.75;84.64;99463.97;108913;1258;71356;-76
2023/02/25 05:17:03;;;;;;;4.40;0.90;;;;;;;2.75;85.02;99461.34;108776;1258;72506;-76
2023/02/25 05:19:30;;;;;;;5.00;1.00;;;;;;;2.76;85.14;99460.70;108873;1257;60923;-76
2023/02/25 05:21:57;;;;;;;5.20;1.00;;;;;;;2.78;85.63;99455.08;108840;1257;59294;-76
2023/02/25 05:24:25;;;;;;;6.80;1.40;;;;;;;2.80;86.02;99458.20;108929;1257;74725;-76
2023/02/25 05:26:51;;;;;;;7.40;1.10;;;;;;;2.80;86.43;99462.39;108752;1258;70900;-76
2023/02/25 05:29:19;;;;;;;7.40;1.50;;;;;;;2.81;86.96;99466.80;108864;1257;71482;-76
2023/02/25 05:31:48;;;;;;;5.40;1.10;;;;;;;2.82;87.68;99462.20;108875;1257;60426;-76
2023/02/25 05:34:15;;;;;;;6.00;1.10;;;;;;;2.83;88.19;99464.05;108773;1257;60251;-76
2023/02/25 05:36:43;;;;;;;7.60;1.20;;;;;;;2.82;88.65;99471.07;108886;1256;73379;-76
2023/02/25 05:39:11;;;;;;;6.50;1.30;;;;;;;2.82;88.33;99464.95;108797;1256;70864;-76
2023/02/25 05:41:38;;;;;;;5.60;1.20;;;;;;;2.81;87.73;99466.52;108780;1257;71519;-76
2023/02/25 05:44:06;;;;;;;4.90;0.80;;;;;;;2.80;86.77;99485.80;108740;1257;59755;-76
2023/02/25 05:46:33;;;;;;;4.00;0.80;;;;;;;2.79;86.04;99481.33;108888;1257;59524;-76
2023/02/25 05:49:00;;;;;;;3.90;1.10;;;;;;;2.79;86.36;99486.70;108768;1257;74545;-77
2023/02/25 05:51:27;;;;;;;4.50;1.10;;;;;;;2.79;86.21;99489.74;108782;1259;71389;-76
2023/02/25 05:53:54;;;;;;;5.30;1.10;;;;;;;2.77;85.48;99497.85;108693;1257;71097;-76
2023/02/25 05:56:23;;;;;;;3.90;1.00;;;;;;;2.77;85.51;99495.30;108703;1263;59628;-77
2023/02/25 05:58:51;;;;;;;2.10;0.60;;;;;;;2.78;85.49;99499.11;108716;1264;60050;-76
2023/02/25 06:01:21;;;;;;;4.80;0.90;;;;;;;2.77;85.28;99504.98;108787;1262;73527;-77
2023/02/25 06:03:49;;;;;;;5.50;0.90;;;;;;;2.75;85.13;99510.09;108782;1257;71692;-77
2023/02/25 06:06:21;;;;;;;3.90;0.90;;;;;;;2.71;84.52;99519.92;108766;1257;72853;-76
2023/02/25 06:08:50;;;;;;;4.80;0.90;;;;;;;2.66;83.82;99528.78;108795;1258;59656;-76
2023/02/25 06:11:23;;;;;;;3.80;0.90;;;;;;;2.63;83.63;99531.14;108854;1258;60242;-76
2023/02/25 06:13:51;;;;;;;2.70;0.90;;;;;;;2.57;83.47;99545.14;108780;1258;73311;-76
2023/02/25 06:16:19;;;;;;;3.00;1.00;;;;;;;2.48;82.53;99551.30;108827;1258;69192;-77
2023/02/25 06:18:47;;;;;;;3.60;0.90;;;;;;;2.40;81.04;99559.73;108791;1257;70990;-77
2023/02/25 06:21:14;;;;;;;3.00;0.90;;;;;;;2.37;81.78;99569.77;108805;1257;61166;-77
2023/02/25 06:23:42;;;;;;;3.60;1.40;;;;;;;2.34;82.23;99572.69;108789;1257;59053;-77
2023/02/25 06:26:12;;;;;;;3.40;1.00;;;;;;;2.32;81.35;99575.06;108814;1257;73735;-78
2023/02/25 06:28:39;;;;;;;2.50;0.70;;;;;;;2.31;81.74;99582.09;108729;1263;72132;-78
2023/02/25 06:31:13;;;;;;;3.80;1.10;;;;;;;2.29;81.97;99588.55;108780;1258;72716;-77
2023/02/25 06:33:39;;;;;;;4.10;0.90;;;;;;;2.30;82.41;99594.96;108701;1259;60935;-77
2023/02/25 06:36:08;;;;;;;2.50;0.70;;;;;;;2.27;82.14;99593.78;108806;1257;59026;-77
2023/02/25 06:38:35;;;;;;;4.00;1.00;;;;;;;2.28;82.43;99602.08;108759;1257;74941;-77
2023/02/25 06:41:11;;;;;;;3.40;1.00;;;;;;;2.28;82.65;99602.59;108750;1258;69956;-77
2023/02/25 06:43:38;;;;;;;4.10;0.90;;;;;;;2.29;82.72;99606.23;108828;1257;74254;-77
2023/02/25 06:46:07;;;;;;;3.40;0.70;;;;;;;2.29;82.49;99610.77;108790;1257;60912;-77
2023/02/25 06:48:35;;;;;;;3.40;0.80;;;;;;;2.27;81.94;99608.27;108819;1256;59173;-76
2023/02/25 06:51:07;;;;;;;3.10;0.70;;;;;;;2.29;82.44;99614.22;108836;1257;76085;-77
2023/02/25 06:53:36;;;;;;;2.60;0.90;;;;;;;2.28;82.31;99618.16;108901;1257;72020;-77
2023/02/25 06:56:03;;;;;;;3.70;0.70;;;;;;;2.27;82.67;99623.29;108940;1256;72822;-76
2023/02/25 06:58:30;;;;;;;3.50;0.80;;;;;;;2.28;82.64;99628.30;108750;1257;62579;-77
2023/02/25 07:00:58;;;;;;;2.40;0.80;;;;;;;2.25;82.35;99632.35;108790;1257;59059;-76
2023/02/25 07:03:25;;;;;;;3.10;0.80;;;;;;;2.25;82.17;99636.91;108804;1256;73592;-76
2023/02/25 07:05:52;;;;;;;3.30;0.60;;;;;;;2.24;82.43;99640.00;108911;1257;70888;-77
2023/02/25 07:08:19;;;;;;;2.00;0.60;;;;;;;2.24;82.80;99642.63;108915;1257;71980;-76
2023/02/25 07:10:46;;;;;;;2.00;0.50;;;;;;;2.25;82.76;99641.95;108933;1257;60900;-77
2023/02/25 07:13:13;;;;;;;2.20;0.90;;;;;;;2.28;82.96;99644.46;108869;1257;60746;-77
2023/02/25 07:15:40;;;;;;;3.10;0.70;;;;;;;2.30;83.07;99653.58;108695;1258;74904;-77
2023/02/25 07:18:07;;;;;;;3.50;0.60;;;;;;;2.31;82.70;99651.01;108740;1257;69741;-76
2023/02/25 07:20:34;;;;;;;2.80;0.80;;;;;;;2.32;82.63;99646.70;108740;1258;71307;-77
2023/02/25 07:23:03;;;;;;;3.00;0.90;;;;;;;2.31;82.23;99658.49;108923;1257;59649;-76
2023/02/25 07:25:30;;;;;;;2.50;0.60;;;;;;;2.31;82.10;99661.36;108698;1257;60408;-76
2023/02/25 07:27:57;;;;;;;2.70;1.00;;;;;;;2.26;82.04;99658.64;108913;1257;74647;-76
2023/02/25 07:30:24;;;;;;;3.70;1.00;;;;;;;2.24;82.13;99661.80;108718;1257;71057;-76
2023/02/25 07:32:51;;;;;;;2.90;0.80;;;;;;;2.23;81.94;99669.59;108881;1257;71465;-77
2023/02/25 07:35:18;;;;;;;1.80;0.60;;;;;;;2.21;82.28;99670.40;108833;1257;60916;-77
2023/02/25 07:37:45;;;;;;;2.70;0.60;;;;;;;2.24;81.97;99676.14;108939;1256;58999;-76
2023/02/25 07:40:15;;;;;;;3.40;0.70;;;;;;;2.28;81.77;99676.26;108885;1257;74401;-77
2023/02/25 07:42:43;;;;;;;2.50;0.90;;;;;;;2.32;81.54;99680.01;108831;1256;70201;-76
2023/02/25 07:45:10;;;;;;;3.10;0.60;;;;;;;2.38;81.76;99677.73;108813;1257;72907;-76
2023/02/25 07:47:38;;;;;;;3.00;0.70;;;;;;;2.39;80.79;99690.33;108322;1261;592090;-76
2023/02/25 07:50:06;;;;;;;1.90;0.60;;;;;;;2.43;80.58;99682.79;108921;1257;60055;-76
2023/02/25 07:52:33;;;;;;;2.80;0.80;;;;;;;2.48;80.67;99690.90;108739;1257;74764;-77
2023/02/25 07:55:00;;;;;;;2.10;0.60;;;;;;;2.50;79.93;99694.02;108893;1257;69926;-76
2023/02/25 07:57:28;;;;;;;2.00;0.60;;;;;;;2.54;80.15;99698.23;108747;1257;70958;-76
2023/02/25 07:59:54;;;;;;;4.60;0.70;;;;;;;2.56;80.09;99695.19;108913;1257;59079;-76
2023/02/25 08:02:21;;;;;;;2.70;0.70;;;;;;;2.60;80.42;99699.20;108747;1257;59473;-76
2023/02/25 08:04:48;;;;;;;1.10;0.50;;;;;;;2.59;79.38;99703.42;108802;1257;73179;-76
2023/02/25 08:07:16;;;;;;;2.80;0.60;;;;;;;2.58;79.75;99702.14;108866;1256;70035;-80
2023/02/25 08:09:43;;;;;;;1.80;0.70;;;;;;;2.60;79.12;99701.13;108769;1257;72830;-79
2023/02/25 08:12:10;;;;;;;1.90;0.50;;;;;;;2.59;78.42;99704.73;108849;1257;59717;-79
2023/02/25 08:14:37;;;;;;;1.80;0.80;;;;;;;2.63;77.98;99697.66;108963;1257;59574;-79
2023/02/25 08:17:05;;;;;;;2.20;0.80;;;;;;;2.66;77.77;99706.46;108854;1257;73254;-79
2023/02/25 08:19:32;;;;;;;2.10;0.70;;;;;;;2.67;77.48;99703.53;108768;1257;70330;-79
2023/02/25 08:21:59;;;;;;;2.50;0.80;;;;;;;2.69;76.90;99701.62;108850;1257;70140;-79
2023/02/25 08:24:26;;;;;;;4.10;0.90;;;;;;;2.72;76.57;99708.86;108826;1259;60014;-79
2023/02/25 08:26:53;;;;;;;2.90;0.90;;;;;;;2.80;76.57;99708.19;108933;1256;59088;-79
2023/02/25 08:29:21;;;;;;;1.70;0.40;;;;;;;2.89;76.06;99711.21;108754;1257;73169;-79
2023/02/25 08:31:49;;;;;;;2.50;0.60;;;;;;;2.99;74.75;99717.98;108764;1257;70902;-79
2023/02/25 08:34:17;;;;;;;1.70;0.50;;;;;;;3.06;73.48;99718.96;108773;1257;71782;-79
2023/02/25 08:36:44;;;;;;;2.40;0.70;;;;;;;3.12;73.19;99723.60;108857;1256;61255;-79
2023/02/25 08:39:11;;;;;;;2.30;0.70;;;;;;;3.17;73.65;99726.27;108808;1257;59094;-78
2023/02/25 08:41:38;;;;;;;2.00;0.40;;;;;;;3.12;72.58;99721.41;108904;1257;73915;-79
2023/02/25 08:44:05;;;;;;;2.80;0.60;;;;;;;3.11;72.90;99729.02;108849;1257;71268;-79
2023/02/25 08:46:33;;;;;;;4.20;0.70;;;;;;;3.14;72.73;99731.45;108748;1257;73354;-79
2023/02/25 08:49:00;;;;;;;3.00;0.60;;;;;;;3.22;72.82;99730.04;108886;1257;61211;-79
2023/02/25 08:51:32;;;;;;;2.20;0.70;;;;;;;3.30;73.36;99732.59;108921;1256;60254;-79
2023/02/25 08:54:06;;;;;;;2.20;0.60;;;;;;;3.40;72.59;99736.08;108771;1256;73864;-79
2023/02/25 08:56:34;;;;;;;2.20;0.70;;;;;;;3.49;72.20;99737.09;108947;1256;71045;-79
2023/02/25 08:59:01;;;;;;;2.00;0.60;;;;;;;3.58;71.97;99744.63;108757;1257;71525;-79
2023/02/25 09:01:43;;;;;;;2.20;0.60;;;;;;;3.65;70.56;99744.61;108892;1257;60926;-79
2023/02/25 09:04:16;;;;;;;1.70;0.50;;;;;;;3.76;70.87;99751.23;108906;1256;59075;-79
2023/02/25 09:06:46;;;;;;;2.40;0.90;;;;;;;3.79;69.80;99754.09;108329;1256;72410;-80
2023/02/25 09:09:14;;;;;;;3.10;0.50;;;;;;;3.78;69.81;99756.29;108984;1256;70057;-80
2023/02/25 09:11:41;;;;;;;1.80;0.40;;;;;;;3.74;69.32;99759.33;108881;1256;70515;-78
2023/02/25 09:14:09;;;;;;;3.80;0.70;;;;;;;3.72;69.94;99764.20;108794;1257;61194;-79
2023/02/25 09:16:36;;;;;;;2.30;0.60;;;;;;;3.74;70.56;99766.15;108883;1257;59231;-78
2023/02/25 09:19:03;;;;;;;1.90;0.60;;;;;;;3.73;70.85;99773.27;108745;1257;73071;-78
2023/02/25 09:21:31;;;;;;;2.60;0.70;;;;;;;3.68;70.67;99776.86;108716;1257;69767;-78
2023/02/25 09:23:58;;;;;;;1.50;0.50;;;;;;;3.60;70.53;99790.91;108739;1257;70495;-78
2023/02/25 09:26:25;;;;;;;1.30;0.50;;;;;;;3.55;70.18;99785.66;108736;1256;61213;-79
2023/02/25 09:28:52;;;;;;;3.00;0.50;;;;;;;3.50;70.39;99784.73;108825;1256;59015;-81
2023/02/25 09:31:19;;;;;;;2.00;0.50;;;;;;;3.46;70.55;99786.34;108862;1257;73510;-79
2023/02/25 09:33:46;;;;;;;2.40;0.80;;;;;;;3.43;70.82;99790.69;108932;1256;71070;-79
2023/02/25 09:36:16;;;;;;;1.20;0.50;;;;;;;3.42;71.01;99790.94;108791;1257;70693;-79
2023/02/25 09:38:44;;;;;;;2.10;0.50;;;;;;;3.43;71.60;99800.66;108773;1261;61267;-79
2023/02/25 09:41:25;;;;;;;2.10;0.80;;;;;;;3.41;72.13;99809.00;108922;1256;60368;-79
2023/02/25 09:44:11;;;;;;;2.20;0.50;;;;;;;3.30;73.06;99815.34;108965;1257;74334;-79
2023/02/25 09:46:55;;;;;;;1.70;0.60;;;;;;;3.24;74.57;99816.98;108880;1257;71169;-80
2023/02/25 09:49:24;;;;;;;3.00;0.70;;;;;;;3.31;75.30;99823.03;108917;1256;70587;-80
2023/02/25 09:51:58;;;;;;;2.10;0.70;;;;;;;3.31;74.54;99825.39;108928;1256;59445;-80
2023/02/25 09:54:33;;;;;;;2.10;1.00;;;;;;;3.41;74.79;99829.85;108753;1257;59251;-79
2023/02/25 09:57:03;;;;;;;1.40;0.60;;;;;;;3.55;74.39;99833.19;108886;1256;74780;-80
2023/02/25 09:59:30;;;;;;;1.50;0.60;;;;;;;3.72;73.68;99836.14;108936;1256;71165;-80
2023/02/25 10:02:21;;;;;;;2.00;0.60;;;;;;;3.88;72.65;99840.96;108871;1256;72775;-80
2023/02/25 10:05:20;;;;;;;2.40;0.60;;;;;;;4.02;71.75;99844.30;108982;1256;61050;-81
2023/02/25 10:08:06;;;;;;;1.10;0.30;;;;;;;4.15;71.12;99850.16;108900;1257;59286;-79
2023/02/25 10:10:54;;;;;;;2.10;0.60;;;;;;;4.24;72.11;99856.43;108953;1256;74035;-79
2023/02/25 10:13:53;;;;;;;3.10;0.60;;;;;;;4.35;71.20;99860.77;108956;1256;71016;-79
2023/02/25 10:16:40;;;;;;;1.60;0.50;;;;;;;4.26;69.08;99862.77;108889;1256;71379;-78
2023/02/25 10:19:27;;;;;;;3.00;0.60;;;;;;;4.27;69.05;99870.32;108876;1257;60970;-79
2023/02/25 10:22:06;;;;;;;1.90;0.50;;;;;;;4.41;69.69;99867.48;108933;1256;59449;-77
2023/02/25 10:24:48;;;;;;;2.40;0.70;;;;;;;4.57;69.33;99872.52;108941;1256;72895;-80
2023/02/25 10:27:20;;;;;;;1.70;0.50;;;;;;;4.73;69.51;99874.40;108924;1256;70148;-79
2023/02/25 10:29:51;;;;;;;2.40;0.50;;;;;;;4.75;69.00;99877.39;108947;1256;72661;-79
2023/02/25 10:32:24;;;;;;;3.40;0.60;;;;;;;4.70;69.85;99877.89;108767;1257;60061;-79
2023/02/25 10:34:56;;;;;;;1.90;0.60;;;;;;;4.65;70.59;99886.14;108702;1257;59135;-79
2023/02/25 10:37:34;;;;;;;3.20;0.70;;;;;;;4.70;71.23;99889.41;108801;1257;74160;-79
2023/02/25 10:40:04;;;;;;;2.20;0.60;;;;;;;4.71;71.15;99899.66;108776;1256;69703;-80
2023/02/25 10:42:32;;;;;;;3.30;0.80;;;;;;;4.47;70.90;99894.44;108869;1256;71406;-80
2023/02/25 10:45:10;;;;;;;3.90;0.80;;;;;;;4.30;72.80;99899.46;108917;1256;60235;-80
2023/02/25 10:47:45;;;;;;;1.50;0.70;;;;;;;4.09;73.42;99899.20;108894;1256;58983;-80
2023/02/25 10:50:24;;;;;;;3.20;0.70;;;;;;;4.01;74.12;99896.85;108892;1256;73187;-80
2023/02/25 10:53:19;;;;;;;2.40;0.80;;;;;;;3.96;74.46;99898.97;108797;1256;71134;-80
2023/02/25 10:55:50;;;;;;;2.50;0.80;;;;;;;4.03;74.60;99906.60;108842;1257;72744;-80
2023/02/25 10:58:43;;;;;;;2.50;0.90;;;;;;;4.12;73.40;99911.36;108920;1256;59256;-80
2023/02/25 11:01:16;;;;;;;1.90;0.60;;;;;;;4.15;70.98;99911.23;108788;1257;58820;-79
2023/02/25 11:03:53;;;;;;;1.10;0.50;;;;;;;4.19;70.43;99910.86;108926;1256;74752;-80
2023/02/25 11:06:27;;;;;;;2.00;0.60;;;;;;;4.21;68.97;99916.05;108903;1256;70982;-80
2023/02/25 11:08:57;;;;;;;1.70;0.60;;;;;;;4.39;68.36;99922.13;108773;1257;71789;-80
2023/02/25 11:11:31;;;;;;;2.80;0.70;;;;;;;4.58;66.81;99922.34;108769;1256;60253;-79
2023/02/25 11:14:04;;;;;;;3.20;0.70;;;;;;;4.70;65.11;99922.90;108914;1256;59692;-80
2023/02/25 11:16:34;;;;;;;1.40;0.50;;;;;;;4.82;63.69;99928.43;109008;1256;73514;-80
2023/02/25 11:19:11;;;;;;;1.60;0.70;;;;;;;4.88;61.72;99922.21;108824;1257;70933;-80
2023/02/25 11:21:39;;;;;;;2.40;0.60;;;;;;;5.01;61.27;99917.83;108869;1256;72957;-80
2023/02/25 11:24:11;;;;;;;1.70;0.60;;;;;;;5.08;62.56;99923.35;108732;1257;60086;-80
2023/02/25 11:26:43;;;;;;;2.10;0.60;;;;;;;5.05;63.76;99927.42;108873;1256;59810;-80
2023/02/25 11:29:19;;;;;;;1.90;0.70;;;;;;;4.93;62.89;99937.35;108906;1256;74663;-80
2023/02/25 11:31:52;;;;;;;2.40;0.60;;;;;;;4.81;61.68;99943.49;108849;1256;71659;-80
2023/02/25 11:34:29;;;;;;;3.10;0.80;;;;;;;4.65;61.04;99942.27;108916;1256;71871;-79
2023/02/25 11:37:35;;;;;;;2.20;0.80;;;;;;;4.72;62.65;99943.41;108851;1256;59813;-80
2023/02/25 11:40:18;;;;;;;1.70;0.70;;;;;;;4.66;62.60;99953.63;108916;1256;59487;-80
2023/02/25 11:43:04;;;;;;;2.00;0.70;;;;;;;4.53;62.60;99953.20;108852;1257;74670;-80
2023/02/25 11:45:38;;;;;;;3.30;0.60;;;;;;;4.43;63.18;99954.66;108939;1256;69726;-80